sensor_id;sensor_type;location;lat;lon;timestamp;pressure;altitude;pressure_sealevel;temperature;humidity
6218;BME280;3142;48.206;11.550;2023-03-16T00:00:53;96131.78;;;5.72;69.79
6218;BME280;3142;48.206;11.550;2023-03-16T00:03:20;96126.25;;;5.67;70.38
6218;BME280;3142;48.206;11.550;2023-03-16T00:05:50;96132.59;;;5.64;70.00
6218;BME280;3142;48.206;11.550;2023-03-16T00:08:17;96126.22;;;5.59;70.29
6218;BME280;3142;48.206;11.550;2023-03-16T00:10:44;96118.59;;;5.57;70.85
6218;BME280;3142;48.206;11.550;2023-03-16T00:13:12;96122.66;;;5.52;70.60
6218;BME280;3142;48.206;11.550;2023-03-16T00:15:39;96125.25;;;5.52;70.25
6218;BME280;3142;48.206;11.550;2023-03-16T00:18:05;96120.88;;;5.52;70.45
6218;BME280;3142;48.206;11.550;2023-03-16T00:20:32;96121.31;;;5.48;70.29
6218;BME280;3142;48.206;11.550;2023-03-16T00:23:00;96119.72;;;5.47;70.57
6218;BME280;3142;48.206;11.550;2023-03-16T00:25:27;96113.53;;;5.48;70.40
6218;BME280;3142;48.206;11.550;2023-03-16T00:27:53;96131.22;;;5.44;70.67
6218;BME280;3142;48.206;11.550;2023-03-16T00:30:20;96123.25;;;5.38;70.89
6218;BME280;3142;48.206;11.550;2023-03-16T00:32:47;96134.78;;;5.35;70.50
6218;BME280;3142;48.206;11.550;2023-03-16T00:35:13;96124.22;;;5.37;70.83
6218;BME280;3142;48.206;11.550;2023-03-16T00:37:39;96118.22;;;5.36;70.66
6218;BME280;3142;48.206;11.550;2023-03-16T00:40:10;96124.88;;;5.39;71.12
6218;BME280;3142;48.206;11.550;2023-03-16T00:42:37;96122.44;;;5.37;71.05
6218;BME280;3142;48.206;11.550;2023-03-16T00:45:05;96124.41;;;5.35;71.42
6218;BME280;3142;48.206;11.550;2023-03-16T00:47:33;96124.06;;;5.38;71.35
6218;BME280;3142;48.206;11.550;2023-03-16T00:50:00;96136.84;;;5.31;71.25
6218;BME280;3142;48.206;11.550;2023-03-16T00:52:27;96137.50;;;5.33;71.17
6218;BME280;3142;48.206;11.550;2023-03-16T00:54:54;96134.78;;;5.35;70.92
6218;BME280;3142;48.206;11.550;2023-03-16T00:57:24;96132.31;;;5.33;71.10
6218;BME280;3142;48.206;11.550;2023-03-16T00:59:52;96132.28;;;5.25;71.46
6218;BME280;3142;48.206;11.550;2023-03-16T01:02:19;96126.56;;;5.14;71.59
6218;BME280;3142;48.206;11.550;2023-03-16T01:04:47;96122.94;;;5.06;71.70
6218;BME280;3142;48.206;11.550;2023-03-16T01:07:14;96125.38;;;5.00;71.84
6218;BME280;3142;48.206;11.550;2023-03-16T01:09:41;96132.81;;;5.03;71.34
6218;BME280;3142;48.206;11.550;2023-03-16T01:12:10;96128.13;;;4.98;71.60
6218;BME280;3142;48.206;11.550;2023-03-16T01:14:38;96125.53;;;4.98;71.17
6218;BME280;3142;48.206;11.550;2023-03-16T01:17:07;96124.72;;;4.98;71.59
6218;BME280;3142;48.206;11.550;2023-03-16T01:19:34;96118.22;;;4.94;71.74
6218;BME280;3142;48.206;11.550;2023-03-16T01:22:01;96119.13;;;4.85;71.82
6218;BME280;3142;48.206;11.550;2023-03-16T01:24:28;96119.63;;;4.88;71.83
6218;BME280;3142;48.206;11.550;2023-03-16T01:26:55;96117.53;;;4.92;72.07
6218;BME280;3142;48.206;11.550;2023-03-16T01:29:21;96125.31;;;4.92;71.47
6218;BME280;3142;48.206;11.550;2023-03-16T01:31:49;96127.47;;;4.96;71.35
6218;BME280;3142;48.206;11.550;2023-03-16T01:34:15;96123.59;;;5.00;71.26
6218;BME280;3142;48.206;11.550;2023-03-16T01:36:42;96119.69;;;4.96;71.64
6218;BME280;3142;48.206;11.550;2023-03-16T01:39:09;96115.41;;;4.87;71.78
6218;BME280;3142;48.206;11.550;2023-03-16T01:41:36;96118.41;;;4.74;72.08
6218;BME280;3142;48.206;11.550;2023-03-16T01:44:02;96119.69;;;4.70;71.86
6218;BME280;3142;48.206;11.550;2023-03-16T01:46:29;96119.22;;;4.75;71.93
6218;BME280;3142;48.206;11.550;2023-03-16T01:49:01;96106.91;;;4.69;71.96
6218;BME280;3142;48.206;11.550;2023-03-16T01:51:33;96110.00;;;4.72;72.23
6218;BME280;3142;48.206;11.550;2023-03-16T01:54:02;96105.44;;;4.66;71.80
6218;BME280;3142;48.206;11.550;2023-03-16T01:56:33;96107.47;;;4.55;72.38
6218;BME280;3142;48.206;11.550;2023-03-16T01:59:05;96107.84;;;4.42;72.82
6218;BME280;3142;48.206;11.550;2023-03-16T02:01:32;96111.69;;;4.38;72.84
6218;BME280;3142;48.206;11.550;2023-03-16T02:04:09;96104.06;;;4.36;72.87
6218;BME280;3142;48.206;11.550;2023-03-16T02:06:38;96104.00;;;4.46;72.64
6218;BME280;3142;48.206;11.550;2023-03-16T02:09:05;96109.25;;;4.54;72.29
6218;BME280;3142;48.206;11.550;2023-03-16T02:11:32;96100.66;;;4.54;72.52
6218;BME280;3142;48.206;11.550;2023-03-16T02:14:02;96098.34;;;4.51;72.56
6218;BME280;3142;48.206;11.550;2023-03-16T02:16:31;96106.41;;;4.47;72.02
6218;BME280;3142;48.206;11.550;2023-03-16T02:18:58;96106.06;;;4.42;73.16
6218;BME280;3142;48.206;11.550;2023-03-16T02:21:31;96104.00;;;4.46;72.57
6218;BME280;3142;48.206;11.550;2023-03-16T02:24:01;96105.84;;;4.54;72.98
6218;BME280;3142;48.206;11.550;2023-03-16T02:26:33;96099.16;;;4.51;72.77
6218;BME280;3142;48.206;11.550;2023-03-16T02:29:11;96101.47;;;4.54;72.63
6218;BME280;3142;48.206;11.550;2023-03-16T02:31:40;96106.56;;;4.46;72.78
6218;BME280;3142;48.206;11.550;2023-03-16T02:34:08;96119.22;;;4.49;72.83
6218;BME280;3142;48.206;11.550;2023-03-16T02:36:35;96110.78;;;4.47;72.96
6218;BME280;3142;48.206;11.550;2023-03-16T02:39:03;96110.06;;;4.37;73.15
6218;BME280;3142;48.206;11.550;2023-03-16T02:41:30;96108.59;;;4.34;73.73
6218;BME280;3142;48.206;11.550;2023-03-16T02:44:01;96108.09;;;4.31;73.59
6218;BME280;3142;48.206;11.550;2023-03-16T02:46:29;96103.72;;;4.31;73.48
6218;BME280;3142;48.206;11.550;2023-03-16T02:49:05;96107.78;;;4.34;74.03
6218;BME280;3142;48.206;11.550;2023-03-16T02:51:32;96102.25;;;4.29;73.38
6218;BME280;3142;48.206;11.550;2023-03-16T02:53:59;96108.03;;;4.23;73.36
6218;BME280;3142;48.206;11.550;2023-03-16T02:56:26;96104.03;;;4.10;73.85
6218;BME280;3142;48.206;11.550;2023-03-16T02:58:52;96111.53;;;4.13;74.03
6218;BME280;3142;48.206;11.550;2023-03-16T03:01:21;96092.13;;;4.18;73.84
6218;BME280;3142;48.206;11.550;2023-03-16T03:03:48;96091.66;;;4.22;73.51
6218;BME280;3142;48.206;11.550;2023-03-16T03:06:15;96091.66;;;4.22;73.48
6218;BME280;3142;48.206;11.550;2023-03-16T03:08:42;96100.22;;;4.14;73.34
6218;BME280;3142;48.206;11.550;2023-03-16T03:11:08;96101.75;;;4.07;73.35
6218;BME280;3142;48.206;11.550;2023-03-16T03:13:35;96102.72;;;4.06;73.65
6218;BME280;3142;48.206;11.550;2023-03-16T03:16:03;96099.31;;;4.06;73.24
6218;BME280;3142;48.206;11.550;2023-03-16T03:18:30;96091.63;;;3.96;73.80
6218;BME280;3142;48.206;11.550;2023-03-16T03:20:56;96104.50;;;3.88;74.17
6218;BME280;3142;48.206;11.550;2023-03-16T03:23:24;96109.06;;;3.94;73.96
6218;BME280;3142;48.206;11.550;2023-03-16T03:25:50;96101.16;;;3.96;75.02
6218;BME280;3142;48.206;11.550;2023-03-16T03:28:17;96100.16;;;3.89;74.37
6218;BME280;3142;48.206;11.550;2023-03-16T03:30:44;96094.38;;;3.77;74.87
6218;BME280;3142;48.206;11.550;2023-03-16T03:33:10;96090.72;;;3.70;75.02
6218;BME280;3142;48.206;11.550;2023-03-16T03:35:37;96098.66;;;3.68;74.98
6218;BME280;3142;48.206;11.550;2023-03-16T03:38:03;96099.03;;;3.73;74.71
6218;BME280;3142;48.206;11.550;2023-03-16T03:40:33;96106.25;;;3.70;74.63
6218;BME280;3142;48.206;11.550;2023-03-16T03:43:00;96095.56;;;3.65;74.77
6218;BME280;3142;48.206;11.550;2023-03-16T03:45:26;96085.94;;;3.57;75.39
6218;BME280;3142;48.206;11.550;2023-03-16T03:47:53;96093.31;;;3.52;75.46
6218;BME280;3142;48.206;11.550;2023-03-16T03:50:20;96098.59;;;3.60;75.35
6218;BME280;3142;48.206;11.550;2023-03-16T03:52:47;96093.19;;;3.71;74.46
6218;BME280;3142;48.206;11.550;2023-03-16T03:55:13;96092.16;;;3.64;74.25
6218;BME280;3142;48.206;11.550;2023-03-16T03:57:41;96087.63;;;3.66;74.26
6218;BME280;3142;48.206;11.550;2023-03-16T04:00:09;96081.00;;;3.64;74.63
6218;BME280;3142;48.206;11.550;2023-03-16T04:02:36;96077.00;;;3.69;74.38
6218;BME280;3142;48.206;11.550;2023-03-16T04:05:03;96082.03;;;3.71;74.20
6218;BME280;3142;48.206;11.550;2023-03-16T04:07:30;96086.09;;;3.73;73.94
6218;BME280;3142;48.206;11.550;2023-03-16T04:09:57;96079.66;;;3.77;73.63
6218;BME280;3142;48.206;11.550;2023-03-16T04:12:23;96077.44;;;3.65;73.58
6218;BME280;3142;48.206;11.550;2023-03-16T04:14:51;96084.75;;;3.69;74.01
6218;BME280;3142;48.206;11.550;2023-03-16T04:17:17;96080.53;;;3.68;74.23
6218;BME280;3142;48.206;11.550;2023-03-16T04:19:44;96087.06;;;3.72;74.09
6218;BME280;3142;48.206;11.550;2023-03-16T04:22:10;96091.94;;;3.75;73.56
6218;BME280;3142;48.206;11.550;2023-03-16T04:24:37;96090.31;;;3.74;73.52
6218;BME280;3142;48.206;11.550;2023-03-16T04:27:04;96087.63;;;3.66;73.64
6218;BME280;3142;48.206;11.550;2023-03-16T04:29:31;96095.69;;;3.63;74.41
6218;BME280;3142;48.206;11.550;2023-03-16T04:31:59;96094.59;;;3.66;73.71
6218;BME280;3142;48.206;11.550;2023-03-16T04:34:25;96094.22;;;3.61;73.72
6218;BME280;3142;48.206;11.550;2023-03-16T04:36:52;96094.06;;;3.62;73.33
6218;BME280;3142;48.206;11.550;2023-03-16T04:39:19;96095.34;;;3.58;74.05
6218;BME280;3142;48.206;11.550;2023-03-16T04:41:46;96085.66;;;3.60;74.26
6218;BME280;3142;48.206;11.550;2023-03-16T04:44:12;96083.06;;;3.60;74.17
6218;BME280;3142;48.206;11.550;2023-03-16T04:46:39;96081.59;;;3.58;73.54
6218;BME280;3142;48.206;11.550;2023-03-16T04:49:06;96077.09;;;3.60;73.96
6218;BME280;3142;48.206;11.550;2023-03-16T04:51:34;96079.97;;;3.56;74.09
6218;BME280;3142;48.206;11.550;2023-03-16T04:54:00;96076.41;;;3.58;73.76
6218;BME280;3142;48.206;11.550;2023-03-16T04:56:26;96077.22;;;3.58;73.77
6218;BME280;3142;48.206;11.550;2023-03-16T04:58:53;96075.00;;;3.63;74.82
6218;BME280;3142;48.206;11.550;2023-03-16T05:01:21;96071.75;;;3.61;73.61
6218;BME280;3142;48.206;11.550;2023-03-16T05:03:47;96066.94;;;3.48;73.80
6218;BME280;3142;48.206;11.550;2023-03-16T05:06:16;96070.69;;;3.36;74.36
6218;BME280;3142;48.206;11.550;2023-03-16T05:08:42;96063.06;;;3.17;74.84
6218;BME280;3142;48.206;11.550;2023-03-16T05:11:09;96065.56;;;3.09;75.31
6218;BME280;3142;48.206;11.550;2023-03-16T05:13:35;96068.19;;;2.99;75.39
6218;BME280;3142;48.206;11.550;2023-03-16T05:16:02;96060.50;;;2.89;76.25
6218;BME280;3142;48.206;11.550;2023-03-16T05:18:29;96059.28;;;2.84;76.26
6218;BME280;3142;48.206;11.550;2023-03-16T05:20:57;96063.78;;;2.82;76.17
6218;BME280;3142;48.206;11.550;2023-03-16T05:23:25;96054.84;;;2.76;76.61
6218;BME280;3142;48.206;11.550;2023-03-16T05:25:52;96059.19;;;2.76;77.13
6218;BME280;3142;48.206;11.550;2023-03-16T05:28:18;96053.47;;;2.72;76.79
6218;BME280;3142;48.206;11.550;2023-03-16T05:30:45;96061.38;;;2.71;77.46
6218;BME280;3142;48.206;11.550;2023-03-16T05:33:12;96060.50;;;2.89;77.40
6218;BME280;3142;48.206;11.550;2023-03-16T05:35:39;96049.28;;;2.98;77.25
6218;BME280;3142;48.206;11.550;2023-03-16T05:38:07;96062.06;;;3.00;77.42
6218;BME280;3142;48.206;11.550;2023-03-16T05:40:35;96056.94;;;2.90;77.22
6218;BME280;3142;48.206;11.550;2023-03-16T05:43:02;96062.81;;;2.83;77.76
6218;BME280;3142;48.206;11.550;2023-03-16T05:45:29;96055.09;;;2.73;78.04
6218;BME280;3142;48.206;11.550;2023-03-16T05:47:56;96053.25;;;2.65;77.66
6218;BME280;3142;48.206;11.550;2023-03-16T05:50:22;96049.88;;;2.55;78.02
6218;BME280;3142;48.206;11.550;2023-03-16T05:52:50;96054.09;;;2.47;78.53
6218;BME280;3142;48.206;11.550;2023-03-16T05:55:17;96044.06;;;2.44;78.73
6218;BME280;3142;48.206;11.550;2023-03-16T05:57:45;96062.56;;;2.49;79.29
6218;BME280;3142;48.206;11.550;2023-03-16T06:00:13;96055.63;;;2.49;78.98
6218;BME280;3142;48.206;11.550;2023-03-16T06:02:41;96062.81;;;2.46;79.54
6218;BME280;3142;48.206;11.550;2023-03-16T06:05:08;96065.13;;;2.49;79.31
6218;BME280;3142;48.206;11.550;2023-03-16T06:07:35;96059.66;;;2.61;79.15
6218;BME280;3142;48.206;11.550;2023-03-16T06:10:03;96059.75;;;2.70;79.27
6218;BME280;3142;48.206;11.550;2023-03-16T06:12:30;96057.59;;;2.65;79.08
6218;BME280;3142;48.206;11.550;2023-03-16T06:14:57;96062.19;;;2.71;79.26
6218;BME280;3142;48.206;11.550;2023-03-16T06:17:24;96063.56;;;2.75;78.93
6218;BME280;3142;48.206;11.550;2023-03-16T06:19:50;96058.38;;;2.75;79.39
6218;BME280;3142;48.206;11.550;2023-03-16T06:22:17;96071.97;;;2.77;78.48
6218;BME280;3142;48.206;11.550;2023-03-16T06:24:43;96069.59;;;2.84;78.93
6218;BME280;3142;48.206;11.550;2023-03-16T06:27:10;96070.69;;;2.91;78.53
6218;BME280;3142;48.206;11.550;2023-03-16T06:29:37;96070.50;;;3.02;77.97
6218;BME280;3142;48.206;11.550;2023-03-16T06:32:05;96075.88;;;3.09;77.65
6218;BME280;3142;48.206;11.550;2023-03-16T06:34:32;96077.28;;;3.31;77.60
6218;BME280;3142;48.206;11.550;2023-03-16T06:36:58;96067.16;;;3.55;76.68
6218;BME280;3142;48.206;11.550;2023-03-16T06:39:25;96064.94;;;3.78;75.42
6218;BME280;3142;48.206;11.550;2023-03-16T06:41:51;96071.53;;;3.90;75.11
6218;BME280;3142;48.206;11.550;2023-03-16T06:44:18;96066.13;;;3.83;74.79
6218;BME280;3142;48.206;11.550;2023-03-16T06:46:44;96071.00;;;4.04;73.86
6218;BME280;3142;48.206;11.550;2023-03-16T06:49:12;96068.63;;;4.37;73.04
6218;BME280;3142;48.206;11.550;2023-03-16T06:51:38;96068.53;;;4.72;72.45
6218;BME280;3142;48.206;11.550;2023-03-16T06:54:06;96068.47;;;4.98;71.05
6218;BME280;3142;48.206;11.550;2023-03-16T06:56:32;96065.66;;;5.26;70.79
6218;BME280;3142;48.206;11.550;2023-03-16T06:58:59;96058.13;;;5.49;68.47
6218;BME280;3142;48.206;11.550;2023-03-16T07:01:25;96058.41;;;5.46;68.14
6218;BME280;3142;48.206;11.550;2023-03-16T07:03:52;96058.84;;;5.25;67.82
6218;BME280;3142;48.206;11.550;2023-03-16T07:06:20;96054.34;;;5.35;67.93
6218;BME280;3142;48.206;11.550;2023-03-16T07:08:46;96053.75;;;5.74;66.94
6218;BME280;3142;48.206;11.550;2023-03-16T07:11:13;96047.91;;;5.88;66.25
6218;BME280;3142;48.206;11.550;2023-03-16T07:13:40;96049.91;;;5.94;65.82
6218;BME280;3142;48.206;11.550;2023-03-16T07:16:07;96047.16;;;6.20;65.00
6218;BME280;3142;48.206;11.550;2023-03-16T07:18:33;96052.75;;;6.64;63.98
6218;BME280;3142;48.206;11.550;2023-03-16T07:21:02;96057.28;;;6.70;63.68
6218;BME280;3142;48.206;11.550;2023-03-16T07:23:30;96050.28;;;7.18;62.76
6218;BME280;3142;48.206;11.550;2023-03-16T07:25:56;96048.53;;;7.72;61.45
6218;BME280;3142;48.206;11.550;2023-03-16T07:28:23;96043.00;;;7.90;59.88
6218;BME280;3142;48.206;11.550;2023-03-16T07:30:49;96048.31;;;8.43;58.81
6218;BME280;3142;48.206;11.550;2023-03-16T07:33:16;96048.53;;;7.72;59.30
6218;BME280;3142;48.206;11.550;2023-03-16T07:35:42;96054.22;;;7.45;58.78
6218;BME280;3142;48.206;11.550;2023-03-16T07:38:09;96059.97;;;7.32;59.35
6218;BME280;3142;48.206;11.550;2023-03-16T07:40:38;96058.88;;;6.88;60.44
6218;BME280;3142;48.206;11.550;2023-03-16T07:43:05;96061.91;;;7.69;59.49
6218;BME280;3142;48.206;11.550;2023-03-16T07:45:31;96061.88;;;7.07;59.87
6218;BME280;3142;48.206;11.550;2023-03-16T07:47:57;96072.63;;;6.33;61.73
6218;BME280;3142;48.206;11.550;2023-03-16T07:50:24;96083.25;;;5.56;63.66
6218;BME280;3142;48.206;11.550;2023-03-16T07:52:51;96083.41;;;5.04;65.20
6218;BME280;3142;48.206;11.550;2023-03-16T07:55:18;96086.09;;;4.61;67.32
6218;BME280;3142;48.206;11.550;2023-03-16T07:57:46;96088.91;;;4.67;68.06
6218;BME280;3142;48.206;11.550;2023-03-16T08:02:40;96084.16;;;5.31;67.42
6218;BME280;3142;48.206;11.550;2023-03-16T08:05:07;96090.81;;;5.33;66.69
6218;BME280;3142;48.206;11.550;2023-03-16T08:07:35;96095.94;;;5.09;66.59
6218;BME280;3142;48.206;11.550;2023-03-16T08:10:01;96099.22;;;4.85;67.54
6218;BME280;3142;48.206;11.550;2023-03-16T08:12:28;96101.19;;;4.65;68.19
6218;BME280;3142;48.206;11.550;2023-03-16T08:14:56;96109.56;;;4.33;69.72
6218;BME280;3142;48.206;11.550;2023-03-16T08:17:22;96114.84;;;4.06;70.56
6218;BME280;3142;48.206;11.550;2023-03-16T08:19:48;96117.09;;;4.01;71.51
6218;BME280;3142;48.206;11.550;2023-03-16T08:22:15;96120.84;;;3.89;72.21
6218;BME280;3142;48.206;11.550;2023-03-16T08:24:42;96121.97;;;3.86;72.79
6218;BME280;3142;48.206;11.550;2023-03-16T08:27:08;96122.94;;;3.85;72.49
6218;BME280;3142;48.206;11.550;2023-03-16T08:29:35;96117.88;;;3.83;72.96
6218;BME280;3142;48.206;11.550;2023-03-16T08:32:03;96118.47;;;4.13;72.94
6218;BME280;3142;48.206;11.550;2023-03-16T08:34:30;96116.75;;;4.39;71.25
6218;BME280;3142;48.206;11.550;2023-03-16T08:36:58;96108.19;;;4.47;71.83
6218;BME280;3142;48.206;11.550;2023-03-16T08:39:25;96107.03;;;4.41;71.86
6218;BME280;3142;48.206;11.550;2023-03-16T08:41:51;96117.16;;;4.53;71.90
6218;BME280;3142;48.206;11.550;2023-03-16T08:44:19;96118.66;;;4.37;71.40
6218;BME280;3142;48.206;11.550;2023-03-16T08:46:48;96108.59;;;4.34;71.38
6218;BME280;3142;48.206;11.550;2023-03-16T08:49:17;96112.69;;;4.19;72.44
6218;BME280;3142;48.206;11.550;2023-03-16T08:51:44;96108.56;;;4.26;73.02
6218;BME280;3142;48.206;11.550;2023-03-16T08:54:11;96111.81;;;4.54;71.36
6218;BME280;3142;48.206;11.550;2023-03-16T08:56:37;96108.63;;;4.60;71.12
6218;BME280;3142;48.206;11.550;2023-03-16T08:59:04;96108.69;;;4.51;71.37
6218;BME280;3142;48.206;11.550;2023-03-16T09:01:30;96107.91;;;4.76;70.77
6218;BME280;3142;48.206;11.550;2023-03-16T09:03:58;96096.66;;;5.35;68.81
6218;BME280;3142;48.206;11.550;2023-03-16T09:06:26;96105.47;;;5.09;69.56
6218;BME280;3142;48.206;11.550;2023-03-16T09:08:53;96092.03;;;4.79;70.44
6218;BME280;3142;48.206;11.550;2023-03-16T09:11:20;96094.03;;;4.93;70.49
6218;BME280;3142;48.206;11.550;2023-03-16T09:13:47;96093.19;;;5.69;68.83
6218;BME280;3142;48.206;11.550;2023-03-16T09:16:14;96088.19;;;6.00;67.39
6218;BME280;3142;48.206;11.550;2023-03-16T09:18:41;96090.59;;;5.85;67.08
6218;BME280;3142;48.206;11.550;2023-03-16T09:21:09;96088.38;;;6.15;67.18
6218;BME280;3142;48.206;11.550;2023-03-16T09:23:40;96094.06;;;6.35;65.40
6218;BME280;3142;48.206;11.550;2023-03-16T09:26:07;96097.94;;;6.63;65.63
6218;BME280;3142;48.206;11.550;2023-03-16T09:28:35;96104.72;;;6.80;64.71
6218;BME280;3142;48.206;11.550;2023-03-16T09:31:03;96099.84;;;6.69;64.11
6218;BME280;3142;48.206;11.550;2023-03-16T09:33:30;96099.56;;;6.15;65.27
6218;BME280;3142;48.206;11.550;2023-03-16T09:35:58;96092.00;;;6.94;64.51
6218;BME280;3142;48.206;11.550;2023-03-16T09:38:26;96093.78;;;7.94;60.81
6218;BME280;3142;48.206;11.550;2023-03-16T09:40:57;96086.31;;;9.19;58.30
6218;BME280;3142;48.206;11.550;2023-03-16T09:43:37;96086.06;;;9.65;56.15
6218;BME280;3142;48.206;11.550;2023-03-16T09:46:10;96084.66;;;10.05;54.47
6218;BME280;3142;48.206;11.550;2023-03-16T09:48:39;96080.75;;;10.16;54.44
6218;BME280;3142;48.206;11.550;2023-03-16T09:51:13;96084.53;;;9.56;56.49
6218;BME280;3142;48.206;11.550;2023-03-16T09:53:45;96082.09;;;9.54;55.15
6218;BME280;3142;48.206;11.550;2023-03-16T09:56:19;96077.47;;;10.14;54.12
6218;BME280;3142;48.206;11.550;2023-03-16T09:58:47;96071.09;;;10.65;52.39
6218;BME280;3142;48.206;11.550;2023-03-16T10:01:18;96060.25;;;10.96;52.72
6218;BME280;3142;48.206;11.550;2023-03-16T10:04:07;96067.94;;;11.52;50.07
6218;BME280;3142;48.206;11.550;2023-03-16T10:06:39;96075.47;;;11.21;50.47
6218;BME280;3142;48.206;11.550;2023-03-16T10:09:16;96065.63;;;11.30;49.63
6218;BME280;3142;48.206;11.550;2023-03-16T10:11:53;96074.81;;;11.53;49.25
6218;BME280;3142;48.206;11.550;2023-03-16T10:14:23;96064.88;;;11.97;49.02
6218;BME280;3142;48.206;11.550;2023-03-16T10:16:56;96066.06;;;12.01;47.51
6218;BME280;3142;48.206;11.550;2023-03-16T10:19:32;96070.78;;;11.64;47.88
6218;BME280;3142;48.206;11.550;2023-03-16T10:22:02;96067.69;;;11.41;49.06
6218;BME280;3142;48.206;11.550;2023-03-16T10:24:40;96065.28;;;11.46;49.47
6218;BME280;3142;48.206;11.550;2023-03-16T10:27:17;96060.34;;;11.77;48.87
6218;BME280;3142;48.206;11.550;2023-03-16T10:29:46;96058.53;;;11.78;47.47
6218;BME280;3142;48.206;11.550;2023-03-16T10:32:14;96045.28;;;11.79;47.39
6218;BME280;3142;48.206;11.550;2023-03-16T10:34:45;96045.34;;;12.26;47.15
6218;BME280;3142;48.206;11.550;2023-03-16T10:37:13;96051.56;;;12.05;47.17
6218;BME280;3142;48.206;11.550;2023-03-16T10:39:40;96046.91;;;11.87;47.41
6218;BME280;3142;48.206;11.550;2023-03-16T10:42:15;96035.34;;;11.68;47.32
6218;BME280;3142;48.206;11.550;2023-03-16T10:44:43;96037.53;;;11.65;48.02
6218;BME280;3142;48.206;11.550;2023-03-16T10:47:17;96044.28;;;11.94;47.95
6218;BME280;3142;48.206;11.550;2023-03-16T10:49:44;96041.28;;;12.16;47.11
6218;BME280;3142;48.206;11.550;2023-03-16T10:52:17;96035.81;;;11.98;47.46
6218;BME280;3142;48.206;11.550;2023-03-16T10:54:49;96028.56;;;12.00;48.01
6218;BME280;3142;48.206;11.550;2023-03-16T10:57:23;96035.63;;;12.20;47.11
6218;BME280;3142;48.206;11.550;2023-03-16T10:59:52;96018.47;;;12.57;45.50
6218;BME280;3142;48.206;11.550;2023-03-16T11:02:20;96016.88;;;12.36;45.49
6218;BME280;3142;48.206;11.550;2023-03-16T11:04:47;96023.34;;;12.20;46.22
6218;BME280;3142;48.206;11.550;2023-03-16T11:07:15;96013.81;;;12.06;46.29
6218;BME280;3142;48.206;11.550;2023-03-16T11:09:43;96017.88;;;12.08;47.67
6218;BME280;3142;48.206;11.550;2023-03-16T11:12:13;96013.59;;;12.67;46.27
6218;BME280;3142;48.206;11.550;2023-03-16T11:14:46;96006.34;;;12.75;46.53
6218;BME280;3142;48.206;11.550;2023-03-16T11:17:15;96006.31;;;13.40;45.99
6218;BME280;3142;48.206;11.550;2023-03-16T11:19:49;95999.25;;;12.76;43.62
6218;BME280;3142;48.206;11.550;2023-03-16T11:22:20;95999.66;;;12.60;45.95
6218;BME280;3142;48.206;11.550;2023-03-16T11:24:51;95994.84;;;12.57;45.95
6218;BME280;3142;48.206;11.550;2023-03-16T11:27:22;95994.38;;;12.86;46.53
6218;BME280;3142;48.206;11.550;2023-03-16T11:29:57;95997.72;;;13.13;45.61
6218;BME280;3142;48.206;11.550;2023-03-16T11:32:26;95990.88;;;13.05;45.58
6218;BME280;3142;48.206;11.550;2023-03-16T11:34:55;95993.75;;;12.91;45.83
6218;BME280;3142;48.206;11.550;2023-03-16T11:37:32;95987.25;;;13.07;46.08
6218;BME280;3142;48.206;11.550;2023-03-16T11:40:10;95994.63;;;13.36;45.44
6218;BME280;3142;48.206;11.550;2023-03-16T11:42:47;95978.97;;;13.03;44.04
6218;BME280;3142;48.206;11.550;2023-03-16T11:45:28;95979.56;;;13.05;45.78
6218;BME280;3142;48.206;11.550;2023-03-16T11:48:14;95973.38;;;13.38;45.36
6218;BME280;3142;48.206;11.550;2023-03-16T11:50:49;95972.75;;;12.91;45.76
6218;BME280;3142;48.206;11.550;2023-03-16T11:53:27;95969.41;;;13.15;45.40
6218;BME280;3142;48.206;11.550;2023-03-16T11:56:04;95961.09;;;13.31;44.91
6218;BME280;3142;48.206;11.550;2023-03-16T11:58:45;95954.81;;;13.32;45.71
6218;BME280;3142;48.206;11.550;2023-03-16T12:01:22;95950.91;;;13.42;44.74
6218;BME280;3142;48.206;11.550;2023-03-16T12:04:11;95950.72;;;13.75;45.90
6218;BME280;3142;48.206;11.550;2023-03-16T12:06:58;95944.47;;;13.38;44.74
6218;BME280;3142;48.206;11.550;2023-03-16T12:10:02;95944.13;;;12.76;46.56
6218;BME280;3142;48.206;11.550;2023-03-16T12:12:48;95943.63;;;12.28;45.91
6218;BME280;3142;48.206;11.550;2023-03-16T12:15:25;95934.97;;;12.07;46.61
6218;BME280;3142;48.206;11.550;2023-03-16T12:17:59;95936.78;;;11.87;47.89
6218;BME280;3142;48.206;11.550;2023-03-16T12:20:30;95937.53;;;11.61;48.95
6218;BME280;3142;48.206;11.550;2023-03-16T12:23:02;95933.91;;;11.62;49.29
6218;BME280;3142;48.206;11.550;2023-03-16T12:25:35;95926.47;;;11.72;48.81
6218;BME280;3142;48.206;11.550;2023-03-16T12:28:06;95929.28;;;11.77;48.10
6218;BME280;3142;48.206;11.550;2023-03-16T12:30:44;95910.97;;;11.84;48.43
6218;BME280;3142;48.206;11.550;2023-03-16T12:33:19;95918.44;;;12.00;48.56
6218;BME280;3142;48.206;11.550;2023-03-16T12:35:53;95919.63;;;12.04;47.41
6218;BME280;3142;48.206;11.550;2023-03-16T12:38:35;95921.25;;;11.92;47.35
6218;BME280;3142;48.206;11.550;2023-03-16T12:41:15;95919.84;;;11.83;49.39
6218;BME280;3142;48.206;11.550;2023-03-16T12:44:00;95916.00;;;11.92;49.58
6218;BME280;3142;48.206;11.550;2023-03-16T12:46:38;95913.78;;;11.89;48.80
6218;BME280;3142;48.206;11.550;2023-03-16T12:49:08;95911.59;;;11.79;47.77
6218;BME280;3142;48.206;11.550;2023-03-16T12:51:36;95915.78;;;11.74;47.78
6218;BME280;3142;48.206;11.550;2023-03-16T12:54:04;95916.81;;;11.86;46.65
6218;BME280;3142;48.206;11.550;2023-03-16T12:56:34;95901.66;;;11.62;45.44
6218;BME280;3142;48.206;11.550;2023-03-16T12:59:03;95904.50;;;11.67;46.21
6218;BME280;3142;48.206;11.550;2023-03-16T13:01:37;95890.19;;;11.89;48.02
6218;BME280;3142;48.206;11.550;2023-03-16T13:04:09;95893.78;;;12.14;46.72
6218;BME280;3142;48.206;11.550;2023-03-16T13:06:42;95895.19;;;12.17;46.45
6218;BME280;3142;48.206;11.550;2023-03-16T13:09:10;95886.53;;;12.23;46.42
6218;BME280;3142;48.206;11.550;2023-03-16T13:11:44;95881.59;;;12.46;47.24
6218;BME280;3142;48.206;11.550;2023-03-16T13:14:16;95880.19;;;12.44;43.82
6218;BME280;3142;48.206;11.550;2023-03-16T13:17:03;95880.47;;;12.16;44.71
6218;BME280;3142;48.206;11.550;2023-03-16T13:19:32;95870.94;;;12.41;45.15
6218;BME280;3142;48.206;11.550;2023-03-16T13:22:05;95868.44;;;12.66;44.17
6218;BME280;3142;48.206;11.550;2023-03-16T13:24:49;95865.53;;;12.16;42.73
6218;BME280;3142;48.206;11.550;2023-03-16T13:27:20;95871.13;;;12.33;43.94
6218;BME280;3142;48.206;11.550;2023-03-16T13:29:55;95879.72;;;12.67;44.65
6218;BME280;3142;48.206;11.550;2023-03-16T13:32:24;95869.28;;;12.54;45.00